sensor_id;sensor_type;location;lat;lon;timestamp;pressure;altitude;pressure_sealevel;temperature;humidity
47104;BME280;32853;52.164;5.400;2023-04-05T00:02:07;102285.22;;;6.17;71.04
47104;BME280;32853;52.164;5.400;2023-04-05T00:04:35;102269.63;;;6.17;71.71
47104;BME280;32853;52.164;5.400;2023-04-05T00:07:04;102395.31;;;6.80;72.97
47104;BME280;32853;52.164;5.400;2023-04-05T00:09:35;102363.22;;;6.50;72.72
47104;BME280;32853;52.164;5.400;2023-04-05T00:12:00;102475.97;;;7.22;72.74
47104;BME280;32853;52.164;5.400;2023-04-05T00:14:26;102416.09;;;6.72;72.15
47104;BME280;32853;52.164;5.400;2023-04-05T00:16:51;102380.56;;;6.73;71.68
47104;BME280;32853;52.164;5.400;2023-04-05T00:19:16;102480.31;;;7.23;72.50
47104;BME280;32853;52.164;5.400;2023-04-05T00:21:42;102371.91;;;6.66;72.42
47104;BME280;32853;52.164;5.400;2023-04-05T00:24:07;102452.53;;;7.06;73.86
47104;BME280;32853;52.164;5.400;2023-04-05T00:26:39;102456.88;;;7.17;73.68
47104;BME280;32853;52.164;5.400;2023-04-05T00:29:04;102409.16;;;6.73;72.90
47104;BME280;32853;52.164;5.400;2023-04-05T00:31:30;102469.03;;;7.05;74.36
47104;BME280;32853;52.164;5.400;2023-04-05T00:33:55;102439.53;;;6.83;73.82
47104;BME280;32853;52.164;5.400;2023-04-05T00:36:20;102421.25;;;6.54;74.09
47104;BME280;32853;52.164;5.400;2023-04-05T00:38:47;102305.97;;;6.00;75.11
47104;BME280;32853;52.164;5.400;2023-04-05T00:41:27;102333.72;;;6.31;74.48
47104;BME280;32853;52.164;5.400;2023-04-05T00:43:54;102429.94;;;6.65;76.76
47104;BME280;32853;52.164;5.400;2023-04-05T00:46:22;102391.81;;;6.50;77.13
47104;BME280;32853;52.164;5.400;2023-04-05T00:48:47;102460.31;;;6.75;76.29
47104;BME280;32853;52.164;5.400;2023-04-05T00:51:14;102290.28;;;5.72;76.99
47104;BME280;32853;52.164;5.400;2023-04-05T00:53:41;102437.72;;;6.51;76.06
47104;BME280;32853;52.164;5.400;2023-04-05T00:56:10;102353.56;;;5.94;77.34
47104;BME280;32853;52.164;5.400;2023-04-05T00:58:38;102396.09;;;6.22;79.56
47104;BME280;32853;52.164;5.400;2023-04-05T01:01:40;102442.97;;;6.69;78.51
47104;BME280;32853;52.164;5.400;2023-04-05T01:04:07;102398.75;;;6.44;79.83
47104;BME280;32853;52.164;5.400;2023-04-05T01:07:24;102438.63;;;6.75;78.80
47104;BME280;32853;52.164;5.400;2023-04-05T01:09:52;102388.25;;;6.21;79.69
47104;BME280;32853;52.164;5.400;2023-04-05T01:12:30;102410.84;;;6.40;81.50
47104;BME280;32853;52.164;5.400;2023-04-05T01:14:58;102443.78;;;6.53;81.73
47104;BME280;32853;52.164;5.400;2023-04-05T01:17:25;102411.66;;;6.30;81.54
47104;BME280;32853;52.164;5.400;2023-04-05T01:20:03;102439.38;;;6.31;83.79
47104;BME280;32853;52.164;5.400;2023-04-05T01:37:31;102421.13;;;6.08;87.97
47104;BME280;32853;52.164;5.400;2023-04-05T01:39:59;102422.84;;;6.04;88.70
47104;BME280;32853;52.164;5.400;2023-04-05T01:42:25;102412.41;;;5.95;90.27
47104;BME280;32853;52.164;5.400;2023-04-05T01:44:54;102377.72;;;5.81;89.15
47104;BME280;32853;52.164;5.400;2023-04-05T01:47:20;102421.13;;;6.03;88.73
47104;BME280;32853;52.164;5.400;2023-04-05T01:49:46;102406.28;;;5.84;89.71
47104;BME280;32853;52.164;5.400;2023-04-05T01:52:11;102410.59;;;5.87;88.53
47104;BME280;32853;52.164;5.400;2023-04-05T01:54:40;102281.38;;;5.20;87.20
47104;BME280;32853;52.164;5.400;2023-04-05T01:57:07;102416.78;;;6.05;85.63
47104;BME280;32853;52.164;5.400;2023-04-05T01:59:32;102414.13;;;5.90;86.93
47104;BME280;32853;52.164;5.400;2023-04-05T02:02:02;102408.06;;;5.91;85.86
47104;BME280;32853;52.164;5.400;2023-04-05T02:04:30;102362.06;;;5.67;87.12
47104;BME280;32853;52.164;5.400;2023-04-05T02:06:59;102245.88;;;5.05;86.98
47104;BME280;32853;52.164;5.400;2023-04-05T02:09:27;102403.75;;;5.95;88.38
47104;BME280;32853;52.164;5.400;2023-04-05T02:11:59;102342.94;;;5.53;89.63
47104;BME280;32853;52.164;5.400;2023-04-05T02:14:25;102383.72;;;5.68;91.14
47104;BME280;32853;52.164;5.400;2023-04-05T02:16:51;102384.53;;;5.61;93.67
47104;BME280;32853;52.164;5.400;2023-04-05T02:19:21;102344.63;;;5.42;92.74
47104;BME280;32853;52.164;5.400;2023-04-05T02:21:51;102388.00;;;5.63;94.14
47104;BME280;32853;52.164;5.400;2023-04-05T02:24:34;102366.31;;;5.53;95.30
47104;BME280;32853;52.164;5.400;2023-04-05T02:26:59;102334.16;;;5.28;96.83
47104;BME280;32853;52.164;5.400;2023-04-05T02:29:25;102335.03;;;5.24;97.38
47104;BME280;32853;52.164;5.400;2023-04-05T02:31:52;102380.06;;;5.37;97.78
47104;BME280;32853;52.164;5.400;2023-04-05T02:34:18;102366.25;;;5.42;98.37
47104;BME280;32853;52.164;5.400;2023-04-05T02:36:44;102327.97;;;5.08;98.05
47104;BME280;32853;52.164;5.400;2023-04-05T02:39:11;102393.97;;;5.46;100.00
47104;BME280;32853;52.164;5.400;2023-04-05T02:41:37;102382.69;;;5.43;100.00
47104;BME280;32853;52.164;5.400;2023-04-05T02:44:06;102327.13;;;5.07;100.00
47104;BME280;32853;52.164;5.400;2023-04-05T02:46:33;102320.19;;;5.03;100.00
47104;BME280;32853;52.164;5.400;2023-04-05T02:48:58;102373.94;;;5.24;100.00
47104;BME280;32853;52.164;5.400;2023-04-05T02:51:25;102346.16;;;5.09;100.00
47104;BME280;32853;52.164;5.400;2023-04-05T02:53:51;102318.38;;;4.91;100.00
47104;BME280;32853;52.164;5.400;2023-04-05T02:56:17;102371.34;;;5.22;100.00
47104;BME280;32853;52.164;5.400;2023-04-05T02:58:43;102350.44;;;5.03;100.00
47104;BME280;32853;52.164;5.400;2023-04-05T03:01:08;102291.41;;;4.66;100.00
47104;BME280;32853;52.164;5.400;2023-04-05T03:03:34;102220.25;;;4.23;100.00
47104;BME280;32853;52.164;5.400;2023-04-05T03:06:02;102234.97;;;4.30;100.00
47104;BME280;32853;52.164;5.400;2023-04-05T03:08:47;102366.06;;;5.13;100.00
47104;BME280;32853;52.164;5.400;2023-04-05T03:11:13;102358.25;;;5.09;100.00
47104;BME280;32853;52.164;5.400;2023-04-05T03:13:39;102347.78;;;4.95;98.05
47104;BME280;32853;52.164;5.400;2023-04-05T03:16:05;102289.66;;;4.64;99.58
47104;BME280;32853;52.164;5.400;2023-04-05T03:18:32;102320.13;;;4.94;96.71
47104;BME280;32853;52.164;5.400;2023-04-05T03:20:59;102304.47;;;4.77;98.67
47104;BME280;32853;52.164;5.400;2023-04-05T03:23:29;102345.31;;;5.12;97.71
47104;BME280;32853;52.164;5.400;2023-04-05T03:25:58;102349.66;;;5.11;98.74
47104;BME280;32853;52.164;5.400;2023-04-05T03:28:25;102366.84;;;5.02;95.70
47104;BME280;32853;52.164;5.400;2023-04-05T03:30:50;102363.25;;;4.87;96.96
47104;BME280;32853;52.164;5.400;2023-04-05T03:33:17;102346.91;;;4.94;93.99
47104;BME280;32853;52.164;5.400;2023-04-05T03:35:46;102344.25;;;4.84;95.46
47104;BME280;32853;52.164;5.400;2023-04-05T03:38:15;102339.06;;;4.87;95.35
47104;BME280;32853;52.164;5.400;2023-04-05T03:40:41;102275.63;;;4.41;96.14
47104;BME280;32853;52.164;5.400;2023-04-05T03:43:07;102344.25;;;4.85;93.48
47104;BME280;32853;52.164;5.400;2023-04-05T03:45:39;102266.00;;;4.21;94.62
47104;BME280;32853;52.164;5.400;2023-04-05T03:48:17;102338.97;;;4.72;94.06
47104;BME280;32853;52.164;5.400;2023-04-05T03:50:45;102350.09;;;4.60;96.71
47104;BME280;32853;52.164;5.400;2023-04-05T03:53:10;102334.47;;;4.54;99.03
47104;BME280;32853;52.164;5.400;2023-04-05T03:55:35;102354.50;;;4.70;94.42
47104;BME280;32853;52.164;5.400;2023-04-05T03:58:05;102358.81;;;4.68;97.20
47104;BME280;32853;52.164;5.400;2023-04-05T04:00:30;102321.47;;;4.45;96.15
47104;BME280;32853;52.164;5.400;2023-04-05T04:02:58;102268.53;;;4.20;96.75
47104;BME280;32853;52.164;5.400;2023-04-05T04:05:27;102339.78;;;4.66;95.93
47104;BME280;32853;52.164;5.400;2023-04-05T04:07:52;102348.44;;;4.66;95.96
47104;BME280;32853;52.164;5.400;2023-04-05T04:10:24;102285.13;;;4.35;95.44
47104;BME280;32853;52.164;5.400;2023-04-05T04:12:49;102319.84;;;4.57;95.80
47104;BME280;32853;52.164;5.400;2023-04-05T04:15:17;102284.25;;;4.33;94.39
47104;BME280;32853;52.164;5.400;2023-04-05T04:17:46;102328.41;;;4.52;96.60
47104;BME280;32853;52.164;5.400;2023-04-05T04:20:13;102340.59;;;4.60;95.78
47104;BME280;32853;52.164;5.400;2023-04-05T04:22:39;102338.84;;;4.56;98.48
47104;BME280;32853;52.164;5.400;2023-04-05T04:25:09;102351.81;;;4.58;96.00
47104;BME280;32853;52.164;5.400;2023-04-05T04:27:41;102287.63;;;4.29;97.71
47104;BME280;32853;52.164;5.400;2023-04-05T04:30:13;102344.06;;;4.62;97.65
47104;BME280;32853;52.164;5.400;2023-04-05T04:32:41;102338.00;;;4.59;95.38
47104;BME280;32853;52.164;5.400;2023-04-05T04:35:26;102226.81;;;3.88;95.93
47104;BME280;32853;52.164;5.400;2023-04-05T04:38:06;102350.00;;;4.54;96.68
47104;BME280;32853;52.164;5.400;2023-04-05T04:40:37;102349.13;;;4.50;96.15
47104;BME280;32853;52.164;5.400;2023-04-05T04:43:08;102333.56;;;4.47;96.90
47104;BME280;32853;52.164;5.400;2023-04-05T04:45:38;102320.44;;;4.29;97.36
47104;BME280;32853;52.164;5.400;2023-04-05T04:48:05;102318.66;;;4.23;96.72
47104;BME280;32853;52.164;5.400;2023-04-05T04:50:32;102339.41;;;4.29;98.11
47104;BME280;32853;52.164;5.400;2023-04-05T04:52:58;102335.97;;;4.27;99.68
47104;BME280;32853;52.164;5.400;2023-04-05T04:55:24;102343.69;;;4.24;95.21
47104;BME280;32853;52.164;5.400;2023-04-05T04:57:51;102339.38;;;4.25;99.73
47104;BME280;32853;52.164;5.400;2023-04-05T05:00:17;102296.00;;;4.01;97.59
47104;BME280;32853;52.164;5.400;2023-04-05T05:02:43;102343.63;;;4.20;99.01
47104;BME280;32853;52.164;5.400;2023-04-05T05:05:09;102295.03;;;3.91;96.77
47104;BME280;32853;52.164;5.400;2023-04-05T05:07:57;102327.34;;;4.28;98.57
47104;BME280;32853;52.164;5.400;2023-04-05T05:10:34;102305.63;;;4.16;97.08
47104;BME280;32853;52.164;5.400;2023-04-05T05:13:05;102327.22;;;4.16;98.79
47104;BME280;32853;52.164;5.400;2023-04-05T05:15:35;102328.16;;;4.24;97.20
47104;BME280;32853;52.164;5.400;2023-04-05T05:18:03;102282.00;;;3.87;100.00
47104;BME280;32853;52.164;5.400;2023-04-05T05:20:29;102343.63;;;4.17;99.06
47104;BME280;32853;52.164;5.400;2023-04-05T05:22:57;102301.94;;;3.94;100.00
47104;BME280;32853;52.164;5.400;2023-04-05T05:25:26;102299.50;;;4.06;99.62
47104;BME280;32853;52.164;5.400;2023-04-05T05:28:04;102340.13;;;4.12;100.00
47104;BME280;32853;52.164;5.400;2023-04-05T05:30:35;102158.03;;;3.23;100.00
47104;BME280;32853;52.164;5.400;2023-04-05T05:33:23;102329.84;;;4.21;99.63
47104;BME280;32853;52.164;5.400;2023-04-05T05:35:50;102276.72;;;3.74;100.00
47104;BME280;32853;52.164;5.400;2023-04-05T05:38:23;102340.06;;;4.08;100.00
47104;BME280;32853;52.164;5.400;2023-04-05T05:40:56;102302.91;;;4.00;100.00
47104;BME280;32853;52.164;5.400;2023-04-05T05:43:22;102294.38;;;4.11;100.00
47104;BME280;32853;52.164;5.400;2023-04-05T05:45:48;102233.47;;;3.64;97.45
47104;BME280;32853;52.164;5.400;2023-04-05T05:48:13;102262.09;;;3.78;99.15
47104;BME280;32853;52.164;5.400;2023-04-05T05:50:40;102281.97;;;3.82;99.13
47104;BME280;32853;52.164;5.400;2023-04-05T05:53:06;102335.88;;;4.20;100.00
47104;BME280;32853;52.164;5.400;2023-04-05T05:55:31;102330.63;;;4.12;100.00
47104;BME280;32853;52.164;5.400;2023-04-05T05:58:06;102263.88;;;3.84;99.82
47104;BME280;32853;52.164;5.400;2023-04-05T06:00:36;102323.84;;;4.25;97.70
47104;BME280;32853;52.164;5.400;2023-04-05T06:03:11;102328.19;;;4.29;99.10
47104;BME280;32853;52.164;5.400;2023-04-05T06:05:37;102261.38;;;3.93;99.07
47104;BME280;32853;52.164;5.400;2023-04-05T06:08:02;102323.00;;;4.26;100.00
47104;BME280;32853;52.164;5.400;2023-04-05T06:10:28;102352.38;;;4.31;100.00
47104;BME280;32853;52.164;5.400;2023-04-05T06:12:54;102346.41;;;4.36;97.56
47104;BME280;32853;52.164;5.400;2023-04-05T06:15:20;102301.91;;;3.91;98.88
47104;BME280;32853;52.164;5.400;2023-04-05T06:17:45;102349.78;;;4.29;99.42
47104;BME280;32853;52.164;5.400;2023-04-05T06:20:10;102328.09;;;4.20;99.16
47104;BME280;32853;52.164;5.400;2023-04-05T06:22:39;102251.03;;;3.91;98.66
47104;BME280;32853;52.164;5.400;2023-04-05T06:25:09;102336.94;;;4.38;99.89
47104;BME280;32853;52.164;5.400;2023-04-05T06:27:41;102355.94;;;4.41;100.00
47104;BME280;32853;52.164;5.400;2023-04-05T06:30:06;102310.81;;;4.14;100.00
47104;BME280;32853;52.164;5.400;2023-04-05T06:32:36;102343.09;;;4.53;100.00
47104;BME280;32853;52.164;5.400;2023-04-05T06:35:01;102352.59;;;4.52;98.57
47104;BME280;32853;52.164;5.400;2023-04-05T06:37:48;102298.94;;;4.37;98.70
47104;BME280;32853;52.164;5.400;2023-04-05T06:40:14;102253.81;;;4.11;99.67
47104;BME280;32853;52.164;5.400;2023-04-05T06:42:43;102099.50;;;3.31;97.98
47104;BME280;32853;52.164;5.400;2023-04-05T06:45:09;102265.28;;;4.42;96.29
47104;BME280;32853;52.164;5.400;2023-04-05T06:47:35;102337.31;;;4.80;96.98
47104;BME280;32853;52.164;5.400;2023-04-05T06:50:01;102260.84;;;4.24;94.76
47104;BME280;32853;52.164;5.400;2023-04-05T06:52:29;102340.78;;;4.82;94.46
47104;BME280;32853;52.164;5.400;2023-04-05T06:55:01;102306.13;;;4.68;96.41
47104;BME280;32853;52.164;5.400;2023-04-05T06:57:26;102351.25;;;4.99;96.47
47104;BME280;32853;52.164;5.400;2023-04-05T06:59:53;102237.72;;;4.49;96.16
47104;BME280;32853;52.164;5.400;2023-04-05T07:02:19;102333.88;;;4.85;93.59
47104;BME280;32853;52.164;5.400;2023-04-05T07:04:45;102316.56;;;4.78;93.71
47104;BME280;32853;52.164;5.400;2023-04-05T07:07:11;102278.56;;;4.83;94.08
47104;BME280;32853;52.164;5.400;2023-04-05T07:09:38;102324.66;;;5.29;93.42
47104;BME280;32853;52.164;5.400;2023-04-05T07:12:05;102299.56;;;5.21;90.25
47104;BME280;32853;52.164;5.400;2023-04-05T07:14:31;102343.75;;;5.41;89.58
47104;BME280;32853;52.164;5.400;2023-04-05T07:16:58;102328.28;;;5.55;91.92
47104;BME280;32853;52.164;5.400;2023-04-05T07:19:27;102328.34;;;5.70;89.54
47104;BME280;32853;52.164;5.400;2023-04-05T07:21:55;102317.09;;;5.74;88.83
47104;BME280;32853;52.164;5.400;2023-04-05T07:24:22;102224.41;;;5.38;87.05
47104;BME280;32853;52.164;5.400;2023-04-05T07:26:47;102286.81;;;5.75;85.22
47104;BME280;32853;52.164;5.400;2023-04-05T07:29:12;102274.72;;;5.78;81.13
47104;BME280;32853;52.164;5.400;2023-04-05T07:31:41;102230.56;;;5.68;83.16
47104;BME280;32853;52.164;5.400;2023-04-05T07:34:08;102237.50;;;5.69;80.75
47104;BME280;32853;52.164;5.400;2023-04-05T07:36:45;102311.22;;;6.35;79.20
47104;BME280;32853;52.164;5.400;2023-04-05T07:39:11;102334.63;;;6.49;78.46
47104;BME280;32853;52.164;5.400;2023-04-05T07:41:49;102322.50;;;6.54;77.51
47104;BME280;32853;52.164;5.400;2023-04-05T07:44:15;102329.41;;;6.53;78.42
47104;BME280;32853;52.164;5.400;2023-04-05T07:46:44;102299.09;;;6.52;75.22
47104;BME280;32853;52.164;5.400;2023-04-05T07:49:13;102210.75;;;6.20;75.04
47104;BME280;32853;52.164;5.400;2023-04-05T07:51:38;102308.59;;;6.97;75.10
47104;BME280;32853;52.164;5.400;2023-04-05T07:54:04;102258.34;;;6.92;73.61
47104;BME280;32853;52.164;5.400;2023-04-05T07:56:30;102264.31;;;7.20;71.80
47104;BME280;32853;52.164;5.400;2023-04-05T07:58:56;102298.91;;;7.59;70.26
47104;BME280;32853;52.164;5.400;2023-04-05T08:01:26;102321.41;;;7.77;69.08
47104;BME280;32853;52.164;5.400;2023-04-05T08:03:55;102313.66;;;7.66;69.56
47104;BME280;32853;52.164;5.400;2023-04-05T08:06:30;102297.19;;;7.55;69.00
47104;BME280;32853;52.164;5.400;2023-04-05T08:08:56;102301.53;;;7.57;67.60
47104;BME280;32853;52.164;5.400;2023-04-05T08:11:21;102322.19;;;7.91;68.21
47104;BME280;32853;52.164;5.400;2023-04-05T08:13:46;102234.66;;;7.63;67.41
47104;BME280;32853;52.164;5.400;2023-04-05T08:16:12;102310.81;;;8.06;67.27
47104;BME280;32853;52.164;5.400;2023-04-05T08:18:37;102323.78;;;8.16;66.34
47104;BME280;32853;52.164;5.400;2023-04-05T08:21:04;102323.84;;;8.10;64.05
47104;BME280;32853;52.164;5.400;2023-04-05T08:23:30;102223.31;;;7.74;64.62
47104;BME280;32853;52.164;5.400;2023-04-05T08:26:00;102319.28;;;8.46;64.24
47104;BME280;32853;52.164;5.400;2023-04-05T08:28:25;102302.78;;;8.44;64.23
47104;BME280;32853;52.164;5.400;2023-04-05T08:30:54;102278.28;;;8.66;63.91
47104;BME280;32853;52.164;5.400;2023-04-05T08:33:21;102293.72;;;8.85;63.54
47104;BME280;32853;52.164;5.400;2023-04-05T08:35:49;102298.84;;;8.98;62.48
47104;BME280;32853;52.164;5.400;2023-04-05T08:38:14;102303.81;;;9.20;60.18
47104;BME280;32853;52.164;5.400;2023-04-05T08:40:46;102253.50;;;9.07;58.77
47104;BME280;32853;52.164;5.400;2023-04-05T08:43:24;102305.28;;;9.45;56.72
47104;BME280;32853;52.164;5.400;2023-04-05T08:45:52;102290.63;;;9.34;56.25
47104;BME280;32853;52.164;5.400;2023-04-05T08:48:19;102282.56;;;9.53;57.93
47104;BME280;32853;52.164;5.400;2023-04-05T08:50:51;102290.09;;;9.76;58.14
47104;BME280;32853;52.164;5.400;2023-04-05T08:53:20;102301.06;;;10.03;57.64
47104;BME280;32853;52.164;5.400;2023-04-05T08:55:49;102263.78;;;9.90;57.23
47104;BME280;32853;52.164;5.400;2023-04-05T08:58:20;102294.03;;;10.06;54.47
47104;BME280;32853;52.164;5.400;2023-04-05T09:00:50;102299.84;;;10.27;53.48
47104;BME280;32853;52.164;5.400;2023-04-05T09:03:43;102258.84;;;10.29;52.69
47104;BME280;32853;52.164;5.400;2023-04-05T09:06:16;102245.09;;;10.16;49.81
47104;BME280;32853;52.164;5.400;2023-04-05T09:08:41;102287.16;;;10.58;50.79
47104;BME280;32853;52.164;5.400;2023-04-05T09:11:07;102287.97;;;10.61;49.86
47104;BME280;32853;52.164;5.400;2023-04-05T09:13:32;102292.00;;;10.81;50.90
47104;BME280;32853;52.164;5.400;2023-04-05T09:16:01;102299.56;;;10.97;49.90
47104;BME280;32853;52.164;5.400;2023-04-05T09:18:31;102295.69;;;11.17;49.22
47104;BME280;32853;52.164;5.400;2023-04-05T09:21:11;102295.41;;;11.32;48.94
47104;BME280;32853;52.164;5.400;2023-04-05T09:23:50;102280.50;;;11.35;49.20
47104;BME280;32853;52.164;5.400;2023-04-05T09:26:23;102277.06;;;11.33;48.75
47104;BME280;32853;52.164;5.400;2023-04-05T09:28:51;102297.19;;;11.30;45.81
47104;BME280;32853;52.164;5.400;2023-04-05T09:31:35;102240.59;;;11.23;46.46
47104;BME280;32853;52.164;5.400;2023-04-05T09:34:03;102292.78;;;11.75;46.47
47104;BME280;32853;52.164;5.400;2023-04-05T09:36:42;102292.91;;;11.69;45.99
47104;BME280;32853;52.164;5.400;2023-04-05T09:39:08;102258.94;;;11.64;47.36
47104;BME280;32853;52.164;5.400;2023-04-05T09:41:34;102275.75;;;11.95;46.80
47104;BME280;32853;52.164;5.400;2023-04-05T09:44:01;102252.44;;;11.82;46.10
47104;BME280;32853;52.164;5.400;2023-04-05T09:46:38;102285.53;;;11.88;47.44
47104;BME280;32853;52.164;5.400;2023-04-05T09:49:05;102272.84;;;12.07;47.11
47104;BME280;32853;52.164;5.400;2023-04-05T09:51:53;102273.25;;;12.27;46.20
47104;BME280;32853;52.164;5.400;2023-04-05T09:54:19;102288.22;;;12.24;47.03
47104;BME280;32853;52.164;5.400;2023-04-05T09:56:53;102205.13;;;11.88;47.44
47104;BME280;32853;52.164;5.400;2023-04-05T09:59:21;102282.09;;;12.23;45.13
47104;BME280;32853;52.164;5.400;2023-04-05T10:01:50;102269.91;;;12.22;45.91
47104;BME280;32853;52.164;5.400;2023-04-05T10:04:19;102229.75;;;12.18;46.07
47104;BME280;32853;52.164;5.400;2023-04-05T10:06:45;102276.94;;;12.56;45.25
47104;BME280;32853;52.164;5.400;2023-04-05T10:09:18;102261.81;;;12.30;44.02
47104;BME280;32853;52.164;5.400;2023-04-05T10:11:44;102269.44;;;12.40;43.38
47104;BME280;32853;52.164;5.400;2023-04-05T10:14:10;102267.72;;;12.39;42.85
47104;BME280;32853;52.164;5.400;2023-04-05T10:19:26;102219.41;;;12.80;44.20
47104;BME280;32853;52.164;5.400;2023-04-05T10:21:58;102249.06;;;12.50;42.12
47104;BME280;32853;52.164;5.400;2023-04-05T10:24:45;102248.88;;;12.24;43.41
47104;BME280;32853;52.164;5.400;2023-04-05T10:41:50;102233.25;;;12.86;42.74
47104;BME280;32853;52.164;5.400;2023-04-05T10:44:35;102237.03;;;13.39;43.35
47104;BME280;32853;52.164;5.400;2023-04-05T10:47:02;102226.91;;;13.56;42.58
47104;BME280;32853;52.164;5.400;2023-04-05T10:49:52;102199.88;;;13.53;41.42
47104;BME280;32853;52.164;5.400;2023-04-05T10:52:21;102193.97;;;13.73;42.99
47104;BME280;32853;52.164;5.400;2023-04-05T10:54:48;102185.56;;;12.70;41.41
47104;BME280;32853;52.164;5.400;2023-04-05T10:57:17;102232.25;;;13.53;41.43
47104;BME280;32853;52.164;5.400;2023-04-05T10:59:50;102224.16;;;13.30;41.55
47104;BME280;32853;52.164;5.400;2023-04-05T11:02:18;102203.41;;;13.80;43.51
47104;BME280;32853;52.164;5.400;2023-04-05T11:04:44;102234.38;;;14.24;42.08
47104;BME280;32853;52.164;5.400;2023-04-05T11:09:39;102175.16;;;13.86;41.46
47104;BME280;32853;52.164;5.400;2023-04-05T11:20:49;102157.97;;;14.54;40.36
47104;BME280;32853;52.164;5.400;2023-04-05T11:23:28;102201.47;;;14.89;38.80
47104;BME280;32853;52.164;5.400;2023-04-05T11:26:05;102149.53;;;14.44;39.20
47104;BME280;32853;52.164;5.400;2023-04-05T11:28:35;102173.34;;;14.66;40.79
47104;BME280;32853;52.164;5.400;2023-04-05T11:31:19;102180.22;;;14.94;40.87
47104;BME280;32853;52.164;5.400;2023-04-05T11:33:57;102192.97;;;14.81;39.23
47104;BME280;32853;52.164;5.400;2023-04-05T11:36:46;102186.19;;;14.75;38.64
47104;BME280;32853;52.164;5.400;2023-04-05T11:41:59;102182.19;;;14.89;38.84
47104;BME280;32853;52.164;5.400;2023-04-05T11:44:47;102180.00;;;15.00;37.87
47104;BME280;32853;52.164;5.400;2023-04-05T11:47:17;102175.50;;;14.02;38.91
47104;BME280;32853;52.164;5.400;2023-04-05T11:49:49;102171.69;;;14.64;39.32
47104;BME280;32853;52.164;5.400;2023-04-05T11:52:21;102114.47;;;14.17;38.09
47104;BME280;32853;52.164;5.400;2023-04-05T11:54:55;102102.00;;;13.71;37.71
47104;BME280;32853;52.164;5.400;2023-04-05T11:57:22;102160.16;;;14.15;37.99
47104;BME280;32853;52.164;5.400;2023-04-05T11:59:54;102097.09;;;13.60;38.00
47104;BME280;32853;52.164;5.400;2023-04-05T12:02:25;102099.03;;;13.82;38.07
47104;BME280;32853;52.164;5.400;2023-04-05T12:04:55;102148.78;;;14.39;38.38
47104;BME280;32853;52.164;5.400;2023-04-05T12:07:27;102100.16;;;14.51;39.73
47104;BME280;32853;52.164;5.400;2023-04-05T12:12:32;102152.47;;;15.08;38.55
47104;BME280;32853;52.164;5.400;2023-04-05T12:14:59;102134.00;;;14.85;36.57
47104;BME280;32853;52.164;5.400;2023-04-05T12:20:26;102087.97;;;15.62;37.56
47104;BME280;32853;52.164;5.400;2023-04-05T12:22:55;102109.94;;;15.63;37.75
47104;BME280;32853;52.164;5.400;2023-04-05T12:25:28;102127.31;;;15.45;37.97
47104;BME280;32853;52.164;5.400;2023-04-05T12:28:03;102017.72;;;14.72;36.81
47104;BME280;32853;52.164;5.400;2023-04-05T12:30:33;102095.81;;;15.20;36.63
47104;BME280;32853;52.164;5.400;2023-04-05T12:33:13;102119.78;;;15.58;36.78
47104;BME280;32853;52.164;5.400;2023-04-05T12:35:38;102087.75;;;15.23;35.97
47104;BME280;32853;52.164;5.400;2023-04-05T12:38:12;102139.16;;;15.11;37.08
47104;BME280;32853;52.164;5.400;2023-04-05T12:40:39;102142.34;;;14.98;37.03
47104;BME280;32853;52.164;5.400;2023-04-05T12:43:07;102049.72;;;14.85;36.72
47104;BME280;32853;52.164;5.400;2023-04-05T12:45:32;102051.50;;;15.08;37.58
47104;BME280;32853;52.164;5.400;2023-04-05T12:48:36;102127.34;;;15.89;35.91
47104;BME280;32853;52.164;5.400;2023-04-05T12:51:15;102060.06;;;15.35;35.54
47104;BME280;32853;52.164;5.400;2023-04-05T12:53:47;102125.16;;;15.98;36.03
47104;BME280;32853;52.164;5.400;2023-04-05T12:56:23;102106.59;;;15.36;36.83
47104;BME280;32853;52.164;5.400;2023-04-05T12:58:57;102091.81;;;15.32;35.52
47104;BME280;32853;52.164;5.400;2023-04-05T13:01:23;102107.56;;;15.33;35.64
47104;BME280;32853;52.164;5.400;2023-04-05T13:03:49;102107.09;;;16.10;36.84
47104;BME280;32853;52.164;5.400;2023-04-05T13:06:21;102084.81;;;16.56;37.32
47104;BME280;32853;52.164;5.400;2023-04-05T13:08:46;102081.88;;;16.62;35.96
47104;BME280;32853;52.164;5.400;2023-04-05T13:11:12;102075.63;;;16.05;34.48
47104;BME280;32853;52.164;5.400;2023-04-05T13:13:37;102043.16;;;16.03;35.20
47104;BME280;32853;52.164;5.400;2023-04-05T13:16:02;102080.56;;;16.72;35.50
47104;BME280;32853;52.164;5.400;2023-04-05T13:18:28;102045.47;;;16.31;35.06
47104;BME280;32853;52.164;5.400;2023-04-05T13:20:53;102073.25;;;15.99;35.19
47104;BME280;32853;52.164;5.400;2023-04-05T13:23:18;102025.75;;;16.19;35.28
47104;BME280;32853;52.164;5.400;2023-04-05T13:25:43;102060.97;;;16.78;35.58
47104;BME280;32853;52.164;5.400;2023-04-05T13:28:12;102013.84;;;16.48;34.47
47104;BME280;32853;52.164;5.400;2023-04-05T13:30:37;102067.47;;;16.90;35.30
47104;BME280;32853;52.164;5.400;2023-04-05T13:33:02;102018.03;;;16.73;35.12
47104;BME280;32853;52.164;5.400;2023-04-05T13:35:28;102038.47;;;16.69;34.42
47104;BME280;32853;52.164;5.400;2023-04-05T13:37:53;102052.03;;;16.99;34.88
47104;BME280;32853;52.164;5.400;2023-04-05T13:40:19;102029.31;;;15.78;34.76
47104;BME280;32853;52.164;5.400;2023-04-05T13:42:44;102005.47;;;15.59;35.55
47104;BME280;32853;52.164;5.400;2023-04-05T13:45:10;102000.03;;;15.84;35.44
47104;BME280;32853;52.164;5.400;2023-04-05T13:47:36;102010.19;;;15.93;34.88
47104;BME280;32853;52.164;5.400;2023-04-05T13:50:01;101990.91;;;16.11;34.74
47104;BME280;32853;52.164;5.400;2023-04-05T13:52:27;102039.94;;;16.94;35.45
47104;BME280;32853;52.164;5.400;2023-04-05T13:55:08;102043.66;;;17.08;35.79
47104;BME280;32853;52.164;5.400;2023-04-05T13:57:47;102038.06;;;16.96;34.48
47104;BME280;32853;52.164;5.400;2023-04-05T14:00:18;102045.31;;;16.92;35.00